createdAt,value
2022-10-18T00:00:54.501Z,25.25
2022-10-18T00:03:57.510Z,30.07
2022-10-18T00:07:01.448Z,23.25
2022-10-18T00:10:05.681Z,28.05
2022-10-18T00:13:09.210Z,24.83
2022-10-18T00:16:14.694Z,21.98
2022-10-18T00:19:18.296Z,23.58
2022-10-18T00:22:21.418Z,23.67
2022-10-18T00:25:24.263Z,22.73
2022-10-18T00:28:27.251Z,25.58
2022-10-18T00:31:33.855Z,28.02
2022-10-18T00:34:38.671Z,33.20
2022-10-18T00:37:42.535Z,21.73
2022-10-18T00:40:46.439Z,16.23
2022-10-18T00:43:52.321Z,18.27
2022-10-18T00:47:12.133Z,17.63
2022-10-18T00:50:16.908Z,16.58
2022-10-18T00:53:23.615Z,20.23
2022-10-18T00:56:31.104Z,18.65
2022-10-18T00:59:36.214Z,18.42
2022-10-18T01:02:42.737Z,17.05
2022-10-18T01:05:48.744Z,20.98
2022-10-18T01:09:00.539Z,20.43
2022-10-18T01:12:13.175Z,18.77
2022-10-18T01:15:32.811Z,18.92
2022-10-18T01:18:54.102Z,18.95
2022-10-18T01:22:15.097Z,16.50
2022-10-18T01:25:30.566Z,18.40
2022-10-18T01:28:50.690Z,17.65
2022-10-18T01:32:08.359Z,16.33
2022-10-18T01:35:18.806Z,18.35
2022-10-18T01:38:25.932Z,19.40
2022-10-18T01:41:30.615Z,17.53
2022-10-18T01:44:35.631Z,17.63
2022-10-18T01:47:40.775Z,17.25
2022-10-18T01:50:43.701Z,18.40
2022-10-18T01:53:47.014Z,18.17
2022-10-18T01:57:09.327Z,16.73
2022-10-18T02:00:25.713Z,18.45
2022-10-18T02:03:30.589Z,17.83
2022-10-18T02:06:39.189Z,16.83
2022-10-18T02:13:26.133Z,15.17
2022-10-18T02:16:31.856Z,14.50
2022-10-18T02:19:51.140Z,10.80
2022-10-18T02:22:58.243Z,9.93
2022-10-18T02:26:01.900Z,9.77
2022-10-18T02:29:05.798Z,9.27
2022-10-18T02:32:52.323Z,10.63
2022-10-18T02:36:03.422Z,13.52
2022-10-18T02:39:12.532Z,14.13
2022-10-18T02:42:16.817Z,13.52
2022-10-18T02:45:21.623Z,11.57
2022-10-18T02:48:25.233Z,13.75
2022-10-18T02:51:28.785Z,13.57
2022-10-18T02:54:32.459Z,14.70
2022-10-18T02:57:35.557Z,16.00
2022-10-18T03:00:39.192Z,20.23
2022-10-18T03:03:42.579Z,17.42
2022-10-18T03:06:45.436Z,14.45
2022-10-18T03:09:48.657Z,14.20
2022-10-18T03:12:52.170Z,13.98
2022-10-18T03:15:55.668Z,13.83
2022-10-18T03:18:58.512Z,13.13
2022-10-18T03:22:03.681Z,19.10
2022-10-18T03:25:07.563Z,17.17
2022-10-18T03:28:11.488Z,17.17
2022-10-18T03:31:14.977Z,16.07
2022-10-18T03:34:19.276Z,15.30
2022-10-18T03:37:23.225Z,15.10
2022-10-18T03:40:27.225Z,14.40
2022-10-18T03:43:30.820Z,13.95
2022-10-18T03:46:34.922Z,14.47
2022-10-18T03:49:38.441Z,13.35
2022-10-18T03:52:41.781Z,14.18
2022-10-18T03:55:44.719Z,14.48
2022-10-18T03:58:48.286Z,13.82
2022-10-18T04:01:52.542Z,14.33
2022-10-18T04:04:56.725Z,15.13
2022-10-18T04:08:00.275Z,14.95
2022-10-18T04:11:12.953Z,15.40
2022-10-18T04:14:16.520Z,17.60
2022-10-18T04:17:20.071Z,17.67
2022-10-18T04:20:24.320Z,16.00
2022-10-18T04:23:27.850Z,17.55
2022-10-18T04:26:30.708Z,20.88
2022-10-18T04:29:34.451Z,22.08
2022-10-18T04:32:37.993Z,21.27
2022-10-18T04:35:41.487Z,23.77
2022-10-18T04:38:44.724Z,22.00
2022-10-18T04:41:48.329Z,22.25
2022-10-18T04:44:52.059Z,25.20
2022-10-18T04:47:56.130Z,24.67
2022-10-18T04:50:59.097Z,27.65
2022-10-18T04:54:03.631Z,29.13
2022-10-18T04:57:06.611Z,26.30
2022-10-18T05:00:10.219Z,25.35
2022-10-18T05:03:14.871Z,24.80
2022-10-18T05:06:18.415Z,24.73
2022-10-18T05:09:25.063Z,24.85
2022-10-18T05:12:29.244Z,24.15
2022-10-18T05:15:32.378Z,24.80
2022-10-18T05:18:35.765Z,23.93
2022-10-18T05:21:38.569Z,22.48
2022-10-18T05:24:41.842Z,22.50
2022-10-18T05:27:45.425Z,21.83
2022-10-18T05:30:49.382Z,23.38
2022-10-18T05:33:53.014Z,24.33
2022-10-18T05:36:56.822Z,22.48
2022-10-18T05:40:00.491Z,20.27
2022-10-18T05:43:03.707Z,22.35
2022-10-18T05:46:13.596Z,21.10
2022-10-18T05:49:17.100Z,22.60
2022-10-18T05:52:19.966Z,22.00
2022-10-18T05:55:23.875Z,25.42
2022-10-18T05:58:26.918Z,24.83
2022-10-18T06:01:30.837Z,23.70
2022-10-18T06:04:35.300Z,23.77
2022-10-18T06:07:39.129Z,22.77
2022-10-18T06:10:42.252Z,23.77
2022-10-18T06:13:50.333Z,23.27
2022-10-18T06:16:53.417Z,22.65
2022-10-18T06:19:57.451Z,21.77
2022-10-18T06:23:00.420Z,22.70
2022-10-18T06:26:06.952Z,21.92
2022-10-18T06:29:10.613Z,23.83
2022-10-18T06:32:14.057Z,21.60
2022-10-18T06:35:17.313Z,22.23
2022-10-18T06:38:21.266Z,20.10
2022-10-18T06:41:24.853Z,19.25
2022-10-18T06:44:28.023Z,22.20
2022-10-18T06:47:30.841Z,28.88
2022-10-18T06:50:34.097Z,22.20
2022-10-18T06:53:43.976Z,23.50
2022-10-18T06:56:58.829Z,22.23
2022-10-18T07:00:02.660Z,22.05
2022-10-18T07:03:06.619Z,20.90
2022-10-18T07:06:12.045Z,19.97
2022-10-18T07:09:16.040Z,20.52
2022-10-18T07:12:18.941Z,20.95
2022-10-18T07:15:24.855Z,20.90
2022-10-18T07:18:28.775Z,24.17
2022-10-18T07:21:32.631Z,23.00
2022-10-18T07:24:36.129Z,22.65
2022-10-18T07:27:41.961Z,23.25
2022-10-18T07:30:45.248Z,23.52
2022-10-18T07:33:48.468Z,24.10
2022-10-18T07:36:52.537Z,24.63
2022-10-18T07:39:56.182Z,23.73
2022-10-18T07:43:04.444Z,23.80
2022-10-18T07:46:08.487Z,22.58
2022-10-18T07:49:12.301Z,23.77
2022-10-18T07:52:15.861Z,24.07
2022-10-18T07:55:19.075Z,24.95
2022-10-18T07:58:22.647Z,24.55
2022-10-18T08:01:26.245Z,29.02
2022-10-18T08:04:29.208Z,27.40
2022-10-18T08:07:34.693Z,25.10
2022-10-18T08:10:38.431Z,25.27
2022-10-18T08:13:42.751Z,23.67
2022-10-18T08:16:46.322Z,27.13
2022-10-18T08:19:58.569Z,28.23
2022-10-18T08:23:13.105Z,27.57
2022-10-18T08:26:22.265Z,27.42
2022-10-18T08:29:29.224Z,26.48
2022-10-18T08:32:36.058Z,26.58
2022-10-18T08:35:39.354Z,28.80
2022-10-18T08:38:44.431Z,36.53
2022-10-18T08:42:14.221Z,36.95
2022-10-18T08:45:37.466Z,30.40
2022-10-18T08:48:45.801Z,30.42
2022-10-18T08:51:52.030Z,31.80
2022-10-18T08:55:10.843Z,35.63
2022-10-18T08:58:27.245Z,30.30
2022-10-18T09:01:52.412Z,31.58
2022-10-18T09:05:08.174Z,32.20
2022-10-18T09:08:26.008Z,32.13
2022-10-18T09:11:34.888Z,31.73
2022-10-18T09:15:13.849Z,27.35
2022-10-18T09:18:47.359Z,23.50
2022-10-18T09:22:05.001Z,23.33
2022-10-18T09:25:38.089Z,21.40
2022-10-18T09:28:59.527Z,22.13
2022-10-18T09:32:23.375Z,20.60
2022-10-18T09:35:43.992Z,22.50
2022-10-18T09:38:56.125Z,26.63
2022-10-18T09:42:27.018Z,27.67
2022-10-18T09:45:40.711Z,29.93
2022-10-18T09:48:50.120Z,37.10
2022-10-18T09:51:55.027Z,32.28
2022-10-18T09:55:02.367Z,27.30
2022-10-18T09:58:08.658Z,27.58
2022-10-18T10:01:16.619Z,33.37
2022-10-18T10:04:19.849Z,34.97
2022-10-18T10:07:32.561Z,33.38
2022-10-18T10:10:46.851Z,38.78
2022-10-18T10:13:50.305Z,39.15
2022-10-18T10:17:21.769Z,33.90
2022-10-18T10:20:31.478Z,25.88
2022-10-18T10:23:56.742Z,29.55
2022-10-18T10:27:06.944Z,24.73
2022-10-18T10:30:25.713Z,19.15
2022-10-18T10:33:40.072Z,28.37
2022-10-18T10:36:55.602Z,30.52
2022-10-18T10:40:38.945Z,27.67
2022-10-18T10:43:46.376Z,21.60
2022-10-18T10:46:51.921Z,25.77
2022-10-18T10:49:58.197Z,22.77
2022-10-18T10:53:04.391Z,24.25
2022-10-18T10:56:24.877Z,24.73
2022-10-18T11:02:59.306Z,38.15
2022-10-18T11:06:48.274Z,40.30
2022-10-18T11:10:16.406Z,32.22
2022-10-18T11:13:50.004Z,40.20
2022-10-18T11:17:31.333Z,35.60
2022-10-18T11:20:50.140Z,40.50
2022-10-18T11:23:54.550Z,43.23
2022-10-18T11:27:19.641Z,56.13
2022-10-18T11:30:42.245Z,58.40
2022-10-18T11:34:09.270Z,66.20
2022-10-18T11:37:41.200Z,62.72
2022-10-18T11:41:08.791Z,64.53
2022-10-18T11:44:28.946Z,80.63
2022-10-18T11:47:46.647Z,75.07
2022-10-18T11:51:23.767Z,58.42
2022-10-18T11:54:50.083Z,59.33
2022-10-18T11:58:33.646Z,61.10
2022-10-18T12:01:56.446Z,72.40
2022-10-18T12:05:24.209Z,72.30
2022-10-18T12:08:42.432Z,72.95
2022-10-18T12:11:55.801Z,76.13
2022-10-18T12:15:31.423Z,68.53
2022-10-18T12:18:50.109Z,61.22
2022-10-18T12:22:28.159Z,57.67
2022-10-18T12:25:41.186Z,47.42
2022-10-18T12:29:18.292Z,47.45
2022-10-18T12:32:56.279Z,46.80
2022-10-18T12:36:33.426Z,46.15
2022-10-18T12:40:09.816Z,118.82
2022-10-18T12:43:42.915Z,165.68
2022-10-18T12:47:01.390Z,161.43
2022-10-18T12:50:10.442Z,158.53
2022-10-18T12:53:15.548Z,153.77
2022-10-18T12:56:33.233Z,149.25
2022-10-18T12:59:37.586Z,153.13
2022-10-18T13:02:42.459Z,170.70
2022-10-18T13:05:54.388Z,149.93
2022-10-18T13:09:20.628Z,167.32
2022-10-18T13:12:25.753Z,143.90
2022-10-18T13:15:38.141Z,106.97
2022-10-18T13:18:54.397Z,144.23
2022-10-18T13:22:13.083Z,134.17
2022-10-18T13:25:27.879Z,125.93
2022-10-18T13:28:36.599Z,129.27
2022-10-18T13:31:57.846Z,122.88
2022-10-18T13:35:02.171Z,115.35
2022-10-18T13:38:17.238Z,99.00
2022-10-18T13:44:31.021Z,61.00
2022-10-18T13:47:37.663Z,52.90
2022-10-18T13:50:43.762Z,39.33
2022-10-18T13:54:05.464Z,35.83
2022-10-18T13:57:34.277Z,41.35
2022-10-18T14:01:39.047Z,42.55
2022-10-18T14:05:25.078Z,42.75
2022-10-18T14:08:53.390Z,48.85
2022-10-18T14:12:30.432Z,68.53
2022-10-18T14:15:46.531Z,62.58
2022-10-18T14:18:56.335Z,60.67
2022-10-18T14:22:20.359Z,49.55
2022-10-18T14:25:39.325Z,43.65
2022-10-18T14:29:00.288Z,42.87
2022-10-18T14:32:09.013Z,34.85
2022-10-18T14:35:37.127Z,31.20
2022-10-18T14:39:05.974Z,29.98
2022-10-18T14:42:22.790Z,28.35
2022-10-18T14:45:28.962Z,29.83
2022-10-18T14:48:34.183Z,33.40
2022-10-18T14:51:41.544Z,32.75
2022-10-18T14:54:46.618Z,35.30
2022-10-18T14:57:50.930Z,31.90
2022-10-18T15:00:55.398Z,45.43
2022-10-18T15:04:00.468Z,56.30
2022-10-18T15:07:07.471Z,54.65
2022-10-18T15:10:22.440Z,55.13
2022-10-18T15:13:27.524Z,61.58
2022-10-18T15:16:33.109Z,51.30
2022-10-18T15:23:28.385Z,47.17
2022-10-18T15:26:47.976Z,41.33
2022-10-18T15:29:51.712Z,35.80
2022-10-18T15:33:02.491Z,35.70
2022-10-18T15:36:29.106Z,38.28
2022-10-18T15:39:33.098Z,31.27
2022-10-18T15:42:38.379Z,33.25
2022-10-18T15:45:48.889Z,37.47
2022-10-18T15:48:51.848Z,36.97
2022-10-18T15:52:36.632Z,35.83
2022-10-18T15:55:48.179Z,31.60
2022-10-18T15:58:52.277Z,31.58
2022-10-18T16:01:55.750Z,33.33
2022-10-18T16:05:03.489Z,30.80
2022-10-18T16:08:07.387Z,29.90
2022-10-18T16:11:25.779Z,27.80
2022-10-18T16:14:30.639Z,28.92
2022-10-18T16:17:34.375Z,35.38
2022-10-18T16:20:38.709Z,37.57
2022-10-18T16:23:42.465Z,31.77
2022-10-18T16:26:46.190Z,33.97
2022-10-18T16:29:48.998Z,32.45
2022-10-18T16:32:52.894Z,30.00
2022-10-18T16:35:56.542Z,28.23
2022-10-18T16:39:03.085Z,41.33
2022-10-18T16:42:05.854Z,36.55
2022-10-18T16:45:10.634Z,31.23
2022-10-18T16:48:18.515Z,27.48
2022-10-18T16:51:22.075Z,27.30
2022-10-18T16:54:25.143Z,30.30
2022-10-18T16:57:27.881Z,26.42
2022-10-18T17:00:31.144Z,22.45
2022-10-18T17:03:34.885Z,19.00
2022-10-18T17:06:38.439Z,20.53
2022-10-18T17:09:41.561Z,19.17
2022-10-18T17:12:44.881Z,17.38
2022-10-18T17:15:48.684Z,14.90
2022-10-18T17:18:52.282Z,15.93
2022-10-18T17:22:00.152Z,13.10
2022-10-18T17:25:06.303Z,14.02
2022-10-18T17:28:14.026Z,12.52
2022-10-18T17:31:17.465Z,14.10
2022-10-18T17:34:21.653Z,14.90
2022-10-18T17:37:25.202Z,14.43
2022-10-18T17:40:28.390Z,15.15
2022-10-18T17:43:32.057Z,14.07
2022-10-18T17:46:34.987Z,13.90
2022-10-18T17:49:38.634Z,12.27
2022-10-18T17:56:01.239Z,8.60
2022-10-18T17:59:05.233Z,11.13
2022-10-18T18:02:08.144Z,8.63
2022-10-18T18:05:11.563Z,8.57
2022-10-18T18:08:15.458Z,8.80
2022-10-18T18:11:19.500Z,9.02
2022-10-18T18:14:22.708Z,10.10
2022-10-18T18:17:33.977Z,8.90
2022-10-18T18:20:42.899Z,9.17
2022-10-18T18:23:46.707Z,10.63
2022-10-18T18:26:49.741Z,11.55
2022-10-18T18:29:53.557Z,9.65
2022-10-18T18:32:56.959Z,9.15
2022-10-18T18:36:01.257Z,8.97
2022-10-18T18:39:09.687Z,7.72
2022-10-18T18:42:12.895Z,8.07
2022-10-18T18:45:15.722Z,7.78
2022-10-18T18:48:19.865Z,11.35
2022-10-18T18:51:25.177Z,8.03
2022-10-18T18:54:30.247Z,7.97
2022-10-18T18:57:33.312Z,7.07
2022-10-18T19:00:43.305Z,7.07
2022-10-18T19:03:50.656Z,6.47
2022-10-18T19:06:54.225Z,6.80
2022-10-18T19:09:57.135Z,6.57
2022-10-18T19:13:00.119Z,5.53
2022-10-18T19:16:20.649Z,7.07
2022-10-18T19:19:26.180Z,5.97
2022-10-18T19:22:30.244Z,5.77
2022-10-18T19:25:33.642Z,7.13
2022-10-18T19:28:37.158Z,7.65
2022-10-18T19:31:41.127Z,7.93
2022-10-18T19:34:45.257Z,8.23
2022-10-18T19:37:48.700Z,5.80
2022-10-18T19:40:53.860Z,5.72
2022-10-18T19:43:58.092Z,5.57
2022-10-18T19:47:01.577Z,5.57
2022-10-18T19:50:04.576Z,6.87
2022-10-18T19:53:08.030Z,6.43
2022-10-18T19:56:19.396Z,7.70
2022-10-18T19:59:23.826Z,6.10
2022-10-18T20:02:27.079Z,7.40
2022-10-18T20:05:30.257Z,5.30
2022-10-18T20:08:35.264Z,8.27
2022-10-18T20:11:38.864Z,6.65
2022-10-18T20:14:42.376Z,6.30
2022-10-18T20:17:45.218Z,5.95
2022-10-18T20:20:49.124Z,6.95
2022-10-18T20:23:53.632Z,7.82
2022-10-18T20:26:57.028Z,7.82
2022-10-18T20:30:00.519Z,7.30
2022-10-18T20:33:03.391Z,7.82
2022-10-18T20:36:09.148Z,8.80
2022-10-18T20:39:12.655Z,8.00
2022-10-18T20:42:15.696Z,7.40
2022-10-18T20:45:19.259Z,7.53
2022-10-18T20:48:22.862Z,7.55
2022-10-18T20:51:26.148Z,7.60
2022-10-18T20:54:29.028Z,8.80
2022-10-18T20:57:34.280Z,8.18
2022-10-18T21:00:39.363Z,9.07
2022-10-18T21:03:44.493Z,9.40
2022-10-18T21:06:47.345Z,8.27
2022-10-18T21:09:51.175Z,7.20
2022-10-18T21:12:54.217Z,8.32
2022-10-18T21:15:58.780Z,8.80
2022-10-18T21:19:06.398Z,8.03
2022-10-18T21:22:09.525Z,9.60
2022-10-18T21:25:12.460Z,9.10
2022-10-18T21:28:17.223Z,20.83
2022-10-18T21:31:22.845Z,14.63
2022-10-18T21:34:27.079Z,18.60
2022-10-18T21:37:30.824Z,16.83
2022-10-18T21:40:37.138Z,14.13
2022-10-18T21:43:41.728Z,13.20
2022-10-18T21:46:45.216Z,12.43
2022-10-18T21:49:48.065Z,11.82
2022-10-18T21:52:51.396Z,13.80
2022-10-18T21:55:54.945Z,11.75
2022-10-18T21:58:59.357Z,11.35
2022-10-18T22:02:03.447Z,10.80
2022-10-18T22:05:09.785Z,11.13
2022-10-18T22:08:14.268Z,12.52
2022-10-18T22:11:18.713Z,13.23
2022-10-18T22:14:22.697Z,15.00
2022-10-18T22:17:25.566Z,12.13
2022-10-18T22:20:28.524Z,12.35
2022-10-18T22:23:37.199Z,11.43
2022-10-18T22:26:42.231Z,13.50
2022-10-18T22:29:45.123Z,14.93
2022-10-18T22:32:48.715Z,66.53
2022-10-18T22:35:52.107Z,18.15
2022-10-18T22:38:55.212Z,17.98
2022-10-18T22:41:58.458Z,16.48
2022-10-18T22:45:01.373Z,14.10
2022-10-18T22:48:05.171Z,13.27
2022-10-18T22:51:08.724Z,16.25
2022-10-18T22:54:12.371Z,20.50
2022-10-18T22:57:15.957Z,19.48
2022-10-18T23:00:19.517Z,14.90
2022-10-18T23:03:22.569Z,17.52
2022-10-18T23:06:31.939Z,19.65
2022-10-18T23:09:34.956Z,18.42
2022-10-18T23:12:38.229Z,15.23
2022-10-18T23:15:41.400Z,15.03
2022-10-18T23:18:44.949Z,15.95
2022-10-18T23:21:48.508Z,19.70
2022-10-18T23:24:52.247Z,14.73
2022-10-18T23:27:55.253Z,15.00
2022-10-18T23:30:58.198Z,17.03
2022-10-18T23:34:03.760Z,18.85
2022-10-18T23:37:06.946Z,18.70
2022-10-18T23:40:10.355Z,16.48
2022-10-18T23:43:13.530Z,14.48
2022-10-18T23:46:17.811Z,13.53
2022-10-18T23:49:21.660Z,13.15
2022-10-18T23:52:25.311Z,12.35
2022-10-18T23:55:28.296Z,11.73
2022-10-18T23:58:33.316Z,19.35
